sensor_id;sensor_type;location;lat;lon;timestamp;pressure;altitude;pressure_sealevel;temperature;humidity
12536;BME280;6334;48.696;2.114;2022-11-11T00:01:25;101195.38;;;11.02;100.00
12536;BME280;6334;48.696;2.114;2022-11-11T00:03:55;101187.73;;;11.35;100.00
12536;BME280;6334;48.696;2.114;2022-11-11T00:06:26;101195.54;;;10.96;100.00
12536;BME280;6334;48.696;2.114;2022-11-11T00:08:57;101185.89;;;10.87;100.00
12536;BME280;6334;48.696;2.114;2022-11-11T00:11:28;101183.61;;;10.84;100.00
12536;BME280;6334;48.696;2.114;2022-11-11T00:13:58;101180.98;;;11.11;100.00
12536;BME280;6334;48.696;2.114;2022-11-11T00:16:29;101176.70;;;11.07;100.00
12536;BME280;6334;48.696;2.114;2022-11-11T00:18:59;101178.78;;;10.52;100.00
12536;BME280;6334;48.696;2.114;2022-11-11T00:21:48;101175.16;;;10.89;100.00
12536;BME280;6334;48.696;2.114;2022-11-11T00:24:36;101171.81;;;10.75;100.00
12536;BME280;6334;48.696;2.114;2022-11-11T00:27:25;101181.36;;;10.59;100.00
12536;BME280;6334;48.696;2.114;2022-11-11T00:29:55;101186.11;;;10.89;100.00
12536;BME280;6334;48.696;2.114;2022-11-11T00:32:26;101185.70;;;10.68;100.00
12536;BME280;6334;48.696;2.114;2022-11-11T00:34:57;101187.56;;;10.52;100.00
12536;BME280;6334;48.696;2.114;2022-11-11T00:37:46;101181.78;;;10.66;100.00
12536;BME280;6334;48.696;2.114;2022-11-11T00:40:16;101182.43;;;11.00;100.00
12536;BME280;6334;48.696;2.114;2022-11-11T00:42:47;101179.25;;;10.92;100.00
12536;BME280;6334;48.696;2.114;2022-11-11T00:45:17;101182.19;;;10.69;100.00
12536;BME280;6334;48.696;2.114;2022-11-11T00:47:48;101186.38;;;10.38;100.00
12536;BME280;6334;48.696;2.114;2022-11-11T00:50:36;101192.50;;;10.55;100.00
12536;BME280;6334;48.696;2.114;2022-11-11T00:53:26;101178.67;;;10.53;100.00
12536;BME280;6334;48.696;2.114;2022-11-11T00:55:55;101183.50;;;10.85;100.00
12536;BME280;6334;48.696;2.114;2022-11-11T00:58:26;101186.77;;;10.89;100.00
12536;BME280;6334;48.696;2.114;2022-11-11T01:00:56;101191.61;;;10.68;100.00
12536;BME280;6334;48.696;2.114;2022-11-11T01:03:27;101192.67;;;11.06;100.00
12536;BME280;6334;48.696;2.114;2022-11-11T01:06:00;101199.18;;;10.71;100.00
12536;BME280;6334;48.696;2.114;2022-11-11T01:08:31;101198.21;;;10.79;100.00
12536;BME280;6334;48.696;2.114;2022-11-11T01:11:02;101197.89;;;11.02;100.00
12536;BME280;6334;48.696;2.114;2022-11-11T01:13:32;101197.75;;;10.91;100.00
12536;BME280;6334;48.696;2.114;2022-11-11T01:16:04;101188.55;;;11.14;100.00
12536;BME280;6334;48.696;2.114;2022-11-11T01:18:33;101193.63;;;10.87;100.00
12536;BME280;6334;48.696;2.114;2022-11-11T01:21:05;101194.55;;;10.98;100.00
12536;BME280;6334;48.696;2.114;2022-11-11T01:23:36;101147.23;;;10.92;100.00
12536;BME280;6334;48.696;2.114;2022-11-11T01:26:32;101189.05;;;10.62;100.00
12536;BME280;6334;48.696;2.114;2022-11-11T01:28:52;101182.82;;;10.80;100.00
12536;BME280;6334;48.696;2.114;2022-11-11T01:31:23;101202.09;;;10.72;100.00
12536;BME280;6334;48.696;2.114;2022-11-11T01:33:53;101194.22;;;11.02;100.00
12536;BME280;6334;48.696;2.114;2022-11-11T01:36:24;101194.84;;;11.01;100.00
12536;BME280;6334;48.696;2.114;2022-11-11T01:38:55;101201.27;;;10.80;100.00
12536;BME280;6334;48.696;2.114;2022-11-11T01:41:25;101192.05;;;10.52;100.00
12536;BME280;6334;48.696;2.114;2022-11-11T01:46:44;101188.39;;;10.80;100.00
12536;BME280;6334;48.696;2.114;2022-11-11T01:52:35;101196.56;;;10.59;100.00
12536;BME280;6334;48.696;2.114;2022-11-11T01:54:38;101198.36;;;10.68;100.00
12536;BME280;6334;48.696;2.114;2022-11-11T01:57:15;101186.56;;;10.57;100.00
12536;BME280;6334;48.696;2.114;2022-11-11T01:59:45;101190.45;;;10.68;100.00
12536;BME280;6334;48.696;2.114;2022-11-11T02:02:22;101198.76;;;10.75;100.00
12536;BME280;6334;48.696;2.114;2022-11-11T02:04:49;101201.22;;;10.60;100.00
12536;BME280;6334;48.696;2.114;2022-11-11T02:07:38;101204.19;;;10.46;100.00
12536;BME280;6334;48.696;2.114;2022-11-11T02:10:08;101208.77;;;10.32;100.00
12536;BME280;6334;48.696;2.114;2022-11-11T02:12:38;101209.11;;;10.86;100.00
12536;BME280;6334;48.696;2.114;2022-11-11T02:15:27;101210.16;;;10.99;100.00
12536;BME280;6334;48.696;2.114;2022-11-11T02:17:58;101210.52;;;11.08;100.00
12536;BME280;6334;48.696;2.114;2022-11-11T02:20:29;101209.77;;;10.87;100.00
12536;BME280;6334;48.696;2.114;2022-11-11T02:25:49;101196.47;;;11.06;100.00
12536;BME280;6334;48.696;2.114;2022-11-11T02:28:20;101112.89;;;10.10;100.00
12536;BME280;6334;48.696;2.114;2022-11-11T02:30:50;101199.45;;;10.80;100.00
12536;BME280;6334;48.696;2.114;2022-11-11T02:33:20;101194.16;;;11.05;100.00
12536;BME280;6334;48.696;2.114;2022-11-11T02:35:51;101193.05;;;11.11;100.00
12536;BME280;6334;48.696;2.114;2022-11-11T02:38:24;101190.77;;;10.85;100.00
12536;BME280;6334;48.696;2.114;2022-11-11T02:40:55;101187.69;;;10.92;100.00
12536;BME280;6334;48.696;2.114;2022-11-11T02:43:44;101194.59;;;11.09;100.00
12536;BME280;6334;48.696;2.114;2022-11-11T02:46:14;101193.66;;;11.09;100.00
12536;BME280;6334;48.696;2.114;2022-11-11T02:48:44;101196.77;;;10.80;100.00
12536;BME280;6334;48.696;2.114;2022-11-11T02:51:15;101203.48;;;11.05;100.00
12536;BME280;6334;48.696;2.114;2022-11-11T02:53:45;101199.00;;;10.98;100.00
12536;BME280;6334;48.696;2.114;2022-11-11T02:56:16;101198.36;;;10.88;100.00
12536;BME280;6334;48.696;2.114;2022-11-11T02:58:46;101119.91;;;10.42;100.00
12536;BME280;6334;48.696;2.114;2022-11-11T03:01:17;101118.02;;;10.20;100.00
12536;BME280;6334;48.696;2.114;2022-11-11T03:03:47;101201.12;;;10.50;100.00
12536;BME280;6334;48.696;2.114;2022-11-11T03:06:18;101198.16;;;10.85;100.00
12536;BME280;6334;48.696;2.114;2022-11-11T03:08:48;101190.19;;;10.87;100.00
12536;BME280;6334;48.696;2.114;2022-11-11T03:11:19;101189.14;;;10.84;100.00
12536;BME280;6334;48.696;2.114;2022-11-11T03:13:58;101188.73;;;11.26;100.00
12536;BME280;6334;48.696;2.114;2022-11-11T03:16:28;101193.72;;;10.60;100.00
12536;BME280;6334;48.696;2.114;2022-11-11T03:19:17;101190.89;;;10.80;100.00
12536;BME280;6334;48.696;2.114;2022-11-11T03:21:47;101188.26;;;10.67;100.00
12536;BME280;6334;48.696;2.114;2022-11-11T03:24:18;101180.70;;;11.06;100.00
12536;BME280;6334;48.696;2.114;2022-11-11T03:26:48;101178.64;;;10.98;100.00
12536;BME280;6334;48.696;2.114;2022-11-11T03:29:19;101185.41;;;10.66;100.00
12536;BME280;6334;48.696;2.114;2022-11-11T03:31:49;101180.09;;;10.85;100.00
12536;BME280;6334;48.696;2.114;2022-11-11T03:34:20;101181.56;;;10.60;100.00
12536;BME280;6334;48.696;2.114;2022-11-11T03:36:50;101181.35;;;10.81;100.00
12536;BME280;6334;48.696;2.114;2022-11-11T03:39:39;101142.30;;;10.50;100.00
12536;BME280;6334;48.696;2.114;2022-11-11T03:42:09;101149.52;;;10.41;100.00
12536;BME280;6334;48.696;2.114;2022-11-11T03:44:40;101177.41;;;10.68;100.00
12536;BME280;6334;48.696;2.114;2022-11-11T03:47:11;101180.71;;;10.33;100.00
12536;BME280;6334;48.696;2.114;2022-11-11T03:49:42;101186.63;;;10.69;100.00
12536;BME280;6334;48.696;2.114;2022-11-11T03:52:12;101184.62;;;10.43;100.00
12536;BME280;6334;48.696;2.114;2022-11-11T03:54:43;101182.97;;;11.06;100.00
12536;BME280;6334;48.696;2.114;2022-11-11T03:57:13;101184.27;;;10.84;100.00
12536;BME280;6334;48.696;2.114;2022-11-11T03:59:58;101182.52;;;10.30;100.00
12536;BME280;6334;48.696;2.114;2022-11-11T04:02:29;101187.55;;;10.26;100.00
12536;BME280;6334;48.696;2.114;2022-11-11T04:05:18;101185.64;;;10.58;100.00
12536;BME280;6334;48.696;2.114;2022-11-11T04:08:14;101188.66;;;10.65;100.00
12536;BME280;6334;48.696;2.114;2022-11-11T04:11:13;101184.98;;;10.86;100.00
12536;BME280;6334;48.696;2.114;2022-11-11T04:13:41;101181.68;;;10.83;100.00
12536;BME280;6334;48.696;2.114;2022-11-11T04:16:29;101182.77;;;10.93;100.00
12536;BME280;6334;48.696;2.114;2022-11-11T04:18:59;101186.67;;;10.52;100.00
12536;BME280;6334;48.696;2.114;2022-11-11T04:21:48;101186.51;;;10.92;100.00
12536;BME280;6334;48.696;2.114;2022-11-11T04:24:19;101188.76;;;10.64;100.00
12536;BME280;6334;48.696;2.114;2022-11-11T04:27:07;101190.23;;;10.91;100.00
12536;BME280;6334;48.696;2.114;2022-11-11T04:29:38;101192.83;;;10.75;100.00
12536;BME280;6334;48.696;2.114;2022-11-11T04:32:11;101194.75;;;10.61;100.00
12536;BME280;6334;48.696;2.114;2022-11-11T04:35:01;101202.87;;;10.75;100.00
12536;BME280;6334;48.696;2.114;2022-11-11T04:37:31;101200.13;;;10.88;100.00
12536;BME280;6334;48.696;2.114;2022-11-11T04:40:01;101193.85;;;10.94;100.00
12536;BME280;6334;48.696;2.114;2022-11-11T04:42:52;101175.53;;;10.61;100.00
12536;BME280;6334;48.696;2.114;2022-11-11T04:45:20;101182.90;;;10.78;100.00
12536;BME280;6334;48.696;2.114;2022-11-11T04:48:04;101186.11;;;10.89;100.00
12536;BME280;6334;48.696;2.114;2022-11-11T04:50:37;101193.14;;;10.51;100.00
12536;BME280;6334;48.696;2.114;2022-11-11T04:53:05;101199.06;;;10.86;100.00
12536;BME280;6334;48.696;2.114;2022-11-11T04:55:35;101192.48;;;10.86;100.00
12536;BME280;6334;48.696;2.114;2022-11-11T04:58:24;101198.73;;;10.89;100.00
12536;BME280;6334;48.696;2.114;2022-11-11T05:00:54;101201.07;;;10.80;100.00
12536;BME280;6334;48.696;2.114;2022-11-11T05:03:25;101195.43;;;10.92;100.00
12536;BME280;6334;48.696;2.114;2022-11-11T05:05:57;101198.58;;;10.86;100.00
12536;BME280;6334;48.696;2.114;2022-11-11T05:08:45;101199.69;;;10.43;100.00
12536;BME280;6334;48.696;2.114;2022-11-11T05:11:28;101201.21;;;10.63;100.00
12536;BME280;6334;48.696;2.114;2022-11-11T05:13:56;101197.32;;;10.91;100.00
12536;BME280;6334;48.696;2.114;2022-11-11T05:16:45;101192.50;;;10.82;100.00
12536;BME280;6334;48.696;2.114;2022-11-11T05:19:33;101198.16;;;10.78;100.00
12536;BME280;6334;48.696;2.114;2022-11-11T05:24:52;101196.71;;;10.70;100.00
12536;BME280;6334;48.696;2.114;2022-11-11T05:27:40;101197.50;;;10.62;100.00
12536;BME280;6334;48.696;2.114;2022-11-11T05:30:12;101194.42;;;10.62;100.00
12536;BME280;6334;48.696;2.114;2022-11-11T05:32:41;101189.03;;;10.64;100.00
12536;BME280;6334;48.696;2.114;2022-11-11T05:35:12;101185.68;;;10.78;100.00
12536;BME280;6334;48.696;2.114;2022-11-11T05:37:42;101187.70;;;10.76;100.00
12536;BME280;6334;48.696;2.114;2022-11-11T05:40:15;101188.58;;;10.82;100.00
12536;BME280;6334;48.696;2.114;2022-11-11T05:42:46;101190.89;;;10.77;100.00
12536;BME280;6334;48.696;2.114;2022-11-11T05:45:16;101184.68;;;10.92;100.00
12536;BME280;6334;48.696;2.114;2022-11-11T05:47:47;101186.84;;;10.74;100.00
12536;BME280;6334;48.696;2.114;2022-11-11T05:50:17;101185.02;;;10.19;100.00
12536;BME280;6334;48.696;2.114;2022-11-11T05:52:48;101176.69;;;10.20;100.00
12536;BME280;6334;48.696;2.114;2022-11-11T05:55:18;101192.12;;;10.59;100.00
12536;BME280;6334;48.696;2.114;2022-11-11T05:57:49;101189.11;;;10.72;100.00
12536;BME280;6334;48.696;2.114;2022-11-11T06:00:19;101188.75;;;10.86;100.00
12536;BME280;6334;48.696;2.114;2022-11-11T06:02:50;101193.52;;;10.70;100.00
12536;BME280;6334;48.696;2.114;2022-11-11T06:05:20;101195.28;;;10.87;100.00
12536;BME280;6334;48.696;2.114;2022-11-11T06:07:51;101200.50;;;10.55;100.00
12536;BME280;6334;48.696;2.114;2022-11-11T06:10:21;101201.17;;;10.81;100.00
12536;BME280;6334;48.696;2.114;2022-11-11T06:12:58;101191.53;;;10.99;100.00
12536;BME280;6334;48.696;2.114;2022-11-11T06:15:31;101199.20;;;11.05;100.00
12536;BME280;6334;48.696;2.114;2022-11-11T06:18:02;101198.14;;;10.67;100.00
12536;BME280;6334;48.696;2.114;2022-11-11T06:20:32;101205.50;;;10.81;100.00
12536;BME280;6334;48.696;2.114;2022-11-11T06:23:03;101198.38;;;11.05;100.00
12536;BME280;6334;48.696;2.114;2022-11-11T06:25:33;101204.86;;;10.54;100.00
12536;BME280;6334;48.696;2.114;2022-11-11T06:28:21;101210.28;;;10.80;100.00
12536;BME280;6334;48.696;2.114;2022-11-11T06:30:52;101206.82;;;10.65;100.00
12536;BME280;6334;48.696;2.114;2022-11-11T06:33:22;101212.80;;;10.79;100.00
12536;BME280;6334;48.696;2.114;2022-11-11T06:35:52;101210.56;;;10.91;100.00
12536;BME280;6334;48.696;2.114;2022-11-11T06:38:21;101155.46;;;9.94;100.00
12536;BME280;6334;48.696;2.114;2022-11-11T06:40:51;101230.07;;;10.49;100.00
12536;BME280;6334;48.696;2.114;2022-11-11T06:43:21;101228.77;;;10.53;100.00
12536;BME280;6334;48.696;2.114;2022-11-11T06:45:51;101230.05;;;10.38;100.00
12536;BME280;6334;48.696;2.114;2022-11-11T06:48:20;101232.21;;;10.25;100.00
12536;BME280;6334;48.696;2.114;2022-11-11T06:50:51;101204.08;;;10.50;100.00
12536;BME280;6334;48.696;2.114;2022-11-11T06:53:20;101230.55;;;10.70;100.00
12536;BME280;6334;48.696;2.114;2022-11-11T06:55:50;101221.04;;;10.66;100.00
12536;BME280;6334;48.696;2.114;2022-11-11T06:58:20;101238.28;;;10.39;100.00
12536;BME280;6334;48.696;2.114;2022-11-11T07:00:51;101238.72;;;10.36;100.00
12536;BME280;6334;48.696;2.114;2022-11-11T07:03:20;101244.70;;;10.23;100.00
12536;BME280;6334;48.696;2.114;2022-11-11T07:05:50;101245.42;;;10.44;100.00
12536;BME280;6334;48.696;2.114;2022-11-11T07:08:19;101242.27;;;10.52;100.00
12536;BME280;6334;48.696;2.114;2022-11-11T07:10:50;101247.02;;;10.40;100.00
12536;BME280;6334;48.696;2.114;2022-11-11T07:13:19;101246.59;;;10.29;100.00
12536;BME280;6334;48.696;2.114;2022-11-11T07:15:50;101231.84;;;10.81;100.00
12536;BME280;6334;48.696;2.114;2022-11-11T07:18:20;101236.58;;;10.28;100.00
12536;BME280;6334;48.696;2.114;2022-11-11T07:20:50;101220.61;;;10.15;100.00
12536;BME280;6334;48.696;2.114;2022-11-11T07:23:20;101221.33;;;10.35;100.00
12536;BME280;6334;48.696;2.114;2022-11-11T07:25:49;101231.95;;;10.53;100.00
12536;BME280;6334;48.696;2.114;2022-11-11T07:28:21;101229.58;;;10.31;100.00
12536;BME280;6334;48.696;2.114;2022-11-11T07:30:51;101228.36;;;10.39;100.00
12536;BME280;6334;48.696;2.114;2022-11-11T07:33:21;101227.61;;;10.66;100.00
12536;BME280;6334;48.696;2.114;2022-11-11T07:35:50;101222.23;;;10.85;100.00
12536;BME280;6334;48.696;2.114;2022-11-11T07:38:20;101231.33;;;10.53;100.00
12536;BME280;6334;48.696;2.114;2022-11-11T07:40:49;101224.75;;;10.43;100.00
12536;BME280;6334;48.696;2.114;2022-11-11T07:43:19;101226.95;;;10.50;100.00
12536;BME280;6334;48.696;2.114;2022-11-11T07:45:49;101223.88;;;10.67;100.00
12536;BME280;6334;48.696;2.114;2022-11-11T07:48:18;101230.58;;;10.53;100.00
12536;BME280;6334;48.696;2.114;2022-11-11T07:50:50;101228.91;;;10.45;100.00
12536;BME280;6334;48.696;2.114;2022-11-11T07:53:19;101229.20;;;10.47;100.00
12536;BME280;6334;48.696;2.114;2022-11-11T07:55:48;101232.16;;;10.58;100.00
12536;BME280;6334;48.696;2.114;2022-11-11T07:58:18;101235.53;;;10.84;100.00
12536;BME280;6334;48.696;2.114;2022-11-11T08:00:47;101232.83;;;10.71;100.00
12536;BME280;6334;48.696;2.114;2022-11-11T08:03:18;101232.90;;;10.79;100.00
12536;BME280;6334;48.696;2.114;2022-11-11T08:05:48;101234.80;;;10.76;100.00
12536;BME280;6334;48.696;2.114;2022-11-11T08:08:19;101234.33;;;10.82;100.00
12536;BME280;6334;48.696;2.114;2022-11-11T08:10:52;101234.59;;;10.56;100.00
12536;BME280;6334;48.696;2.114;2022-11-11T08:13:19;101225.55;;;10.92;100.00
12536;BME280;6334;48.696;2.114;2022-11-11T08:16:08;101227.99;;;10.51;100.00
12536;BME280;6334;48.696;2.114;2022-11-11T08:18:38;101232.17;;;10.81;100.00
12536;BME280;6334;48.696;2.114;2022-11-11T08:21:07;101233.39;;;10.72;100.00
12536;BME280;6334;48.696;2.114;2022-11-11T08:23:38;101232.55;;;10.80;100.00
12536;BME280;6334;48.696;2.114;2022-11-11T08:26:08;101230.81;;;10.87;100.00
12536;BME280;6334;48.696;2.114;2022-11-11T08:28:38;101236.23;;;10.65;100.00
12536;BME280;6334;48.696;2.114;2022-11-11T08:31:08;101238.86;;;10.70;100.00
12536;BME280;6334;48.696;2.114;2022-11-11T08:33:38;101217.63;;;10.61;100.00
12536;BME280;6334;48.696;2.114;2022-11-11T08:36:08;101240.28;;;10.83;100.00
12536;BME280;6334;48.696;2.114;2022-11-11T08:38:37;101246.96;;;10.89;100.00
12536;BME280;6334;48.696;2.114;2022-11-11T08:41:07;101246.50;;;10.65;100.00
12536;BME280;6334;48.696;2.114;2022-11-11T08:43:36;101247.16;;;10.59;100.00
12536;BME280;6334;48.696;2.114;2022-11-11T08:46:06;101240.87;;;10.76;100.00
12536;BME280;6334;48.696;2.114;2022-11-11T08:48:36;101247.16;;;10.57;100.00
12536;BME280;6334;48.696;2.114;2022-11-11T08:51:05;101248.27;;;11.00;100.00
12536;BME280;6334;48.696;2.114;2022-11-11T08:53:35;101247.20;;;10.92;100.00
12536;BME280;6334;48.696;2.114;2022-11-11T08:56:05;101240.97;;;11.03;100.00
12536;BME280;6334;48.696;2.114;2022-11-11T08:58:36;101241.39;;;11.06;100.00
12536;BME280;6334;48.696;2.114;2022-11-11T09:01:12;101241.23;;;10.93;100.00
12536;BME280;6334;48.696;2.114;2022-11-11T09:03:42;101243.81;;;11.14;100.00
12536;BME280;6334;48.696;2.114;2022-11-11T09:06:13;101244.94;;;11.23;100.00
12536;BME280;6334;48.696;2.114;2022-11-11T09:08:44;101251.89;;;10.88;100.00
12536;BME280;6334;48.696;2.114;2022-11-11T09:11:14;101261.44;;;10.92;100.00
12536;BME280;6334;48.696;2.114;2022-11-11T09:13:47;101250.34;;;11.09;100.00
12536;BME280;6334;48.696;2.114;2022-11-11T09:16:18;101249.67;;;10.70;100.00
12536;BME280;6334;48.696;2.114;2022-11-11T09:18:48;101250.23;;;10.96;100.00
12536;BME280;6334;48.696;2.114;2022-11-11T09:21:19;101245.64;;;10.89;100.00
12536;BME280;6334;48.696;2.114;2022-11-11T09:23:49;101248.84;;;11.23;100.00
12536;BME280;6334;48.696;2.114;2022-11-11T09:26:19;101259.95;;;10.88;100.00
12536;BME280;6334;48.696;2.114;2022-11-11T09:28:50;101250.89;;;10.78;100.00
12536;BME280;6334;48.696;2.114;2022-11-11T09:31:20;101280.77;;;10.80;100.00
12536;BME280;6334;48.696;2.114;2022-11-11T09:33:51;101276.94;;;11.05;100.00
12536;BME280;6334;48.696;2.114;2022-11-11T09:36:21;101279.50;;;10.75;100.00
12536;BME280;6334;48.696;2.114;2022-11-11T09:38:52;101283.14;;;10.58;100.00
12536;BME280;6334;48.696;2.114;2022-11-11T09:41:47;101214.20;;;10.26;100.00
12536;BME280;6334;48.696;2.114;2022-11-11T09:52:33;101285.53;;;11.15;100.00
12536;BME280;6334;48.696;2.114;2022-11-11T09:54:56;101283.66;;;10.64;100.00
12536;BME280;6334;48.696;2.114;2022-11-11T09:57:38;101282.97;;;11.06;100.00
12536;BME280;6334;48.696;2.114;2022-11-11T10:00:28;101285.79;;;10.75;100.00
12536;BME280;6334;48.696;2.114;2022-11-11T10:02:42;101288.30;;;10.98;100.00
12536;BME280;6334;48.696;2.114;2022-11-11T10:08:05;101296.89;;;11.04;100.00
12536;BME280;6334;48.696;2.114;2022-11-11T10:10:37;101264.02;;;10.97;100.00
12536;BME280;6334;48.696;2.114;2022-11-11T10:13:07;101281.05;;;10.79;100.00
12536;BME280;6334;48.696;2.114;2022-11-11T10:15:36;101293.94;;;11.26;100.00
12536;BME280;6334;48.696;2.114;2022-11-11T10:21:04;101292.42;;;10.92;100.00
12536;BME280;6334;48.696;2.114;2022-11-11T10:24:04;101293.19;;;11.01;100.00
12536;BME280;6334;48.696;2.114;2022-11-11T10:27:06;101290.81;;;11.06;100.00
12536;BME280;6334;48.696;2.114;2022-11-11T10:30:00;101295.64;;;11.15;100.00
12536;BME280;6334;48.696;2.114;2022-11-11T10:33:09;101292.96;;;11.14;100.00
12536;BME280;6334;48.696;2.114;2022-11-11T10:36:01;101286.58;;;11.03;100.00
12536;BME280;6334;48.696;2.114;2022-11-11T10:39:00;101288.13;;;10.98;100.00
12536;BME280;6334;48.696;2.114;2022-11-11T10:41:57;101288.73;;;11.09;100.00
12536;BME280;6334;48.696;2.114;2022-11-11T10:44:59;101283.28;;;12.01;100.00
12536;BME280;6334;48.696;2.114;2022-11-11T10:48:11;101280.98;;;12.75;100.00
12536;BME280;6334;48.696;2.114;2022-11-11T10:51:07;101279.76;;;12.75;100.00
12536;BME280;6334;48.696;2.114;2022-11-11T10:54:09;101270.20;;;12.80;100.00
12536;BME280;6334;48.696;2.114;2022-11-11T10:57:20;101279.52;;;11.81;100.00
12536;BME280;6334;48.696;2.114;2022-11-11T11:00:16;101275.77;;;12.81;100.00
12536;BME280;6334;48.696;2.114;2022-11-11T11:06:23;101278.30;;;12.65;100.00
12536;BME280;6334;48.696;2.114;2022-11-11T11:15:40;101272.45;;;11.86;100.00
12536;BME280;6334;48.696;2.114;2022-11-11T11:18:38;101266.58;;;11.90;100.00
12536;BME280;6334;48.696;2.114;2022-11-11T11:21:48;101260.26;;;12.10;100.00
12536;BME280;6334;48.696;2.114;2022-11-11T11:24:46;101250.52;;;12.06;100.00
12536;BME280;6334;48.696;2.114;2022-11-11T11:27:44;101248.98;;;11.90;100.00
12536;BME280;6334;48.696;2.114;2022-11-11T11:30:56;101253.87;;;11.53;100.00
12536;BME280;6334;48.696;2.114;2022-11-11T11:33:51;101253.20;;;11.63;100.00
12536;BME280;6334;48.696;2.114;2022-11-11T11:37:01;101247.65;;;11.99;100.00
12536;BME280;6334;48.696;2.114;2022-11-11T11:40:04;101245.15;;;11.81;100.00
12536;BME280;6334;48.696;2.114;2022-11-11T11:43:01;101245.02;;;11.94;100.00
12536;BME280;6334;48.696;2.114;2022-11-11T11:46:00;101239.53;;;11.70;100.00
12536;BME280;6334;48.696;2.114;2022-11-11T11:49:07;101234.08;;;11.48;100.00
12536;BME280;6334;48.696;2.114;2022-11-11T11:52:04;101238.96;;;11.26;100.00
12536;BME280;6334;48.696;2.114;2022-11-11T12:04:20;101239.39;;;11.78;100.00
12536;BME280;6334;48.696;2.114;2022-11-11T12:10:13;101226.72;;;11.59;100.00
12536;BME280;6334;48.696;2.114;2022-11-11T12:13:15;101222.75;;;11.63;100.00
12536;BME280;6334;48.696;2.114;2022-11-11T12:32:15;101218.58;;;12.06;100.00
12536;BME280;6334;48.696;2.114;2022-11-11T12:35:19;101218.30;;;12.23;100.00
12536;BME280;6334;48.696;2.114;2022-11-11T12:38:51;101213.59;;;12.03;100.00
12536;BME280;6334;48.696;2.114;2022-11-11T12:41:28;101130.14;;;11.83;100.00
12536;BME280;6334;48.696;2.114;2022-11-11T12:44:21;101195.91;;;12.62;100.00
12536;BME280;6334;48.696;2.114;2022-11-11T12:47:36;101193.48;;;12.39;100.00
12536;BME280;6334;48.696;2.114;2022-11-11T12:50:41;101191.04;;;12.44;100.00
12536;BME280;6334;48.696;2.114;2022-11-11T12:53:45;101185.87;;;12.59;100.00
12536;BME280;6334;48.696;2.114;2022-11-11T12:56:52;101184.98;;;12.67;100.00
12536;BME280;6334;48.696;2.114;2022-11-11T13:09:33;101173.16;;;12.35;100.00
12536;BME280;6334;48.696;2.114;2022-11-11T13:15:31;101162.08;;;12.53;100.00
12536;BME280;6334;48.696;2.114;2022-11-11T13:18:35;101168.55;;;12.69;100.00
12536;BME280;6334;48.696;2.114;2022-11-11T13:24:51;101173.69;;;12.46;100.00
12536;BME280;6334;48.696;2.114;2022-11-11T13:31:34;101071.11;;;11.62;100.00
12536;BME280;6334;48.696;2.114;2022-11-11T13:34:34;101165.17;;;12.63;100.00
12536;BME280;6334;48.696;2.114;2022-11-11T13:37:33;101160.22;;;12.69;100.00
12536;BME280;6334;48.696;2.114;2022-11-11T13:40:41;101154.92;;;12.53;100.00
12536;BME280;6334;48.696;2.114;2022-11-11T13:43:50;101097.00;;;12.22;100.00
12536;BME280;6334;48.696;2.114;2022-11-11T13:46:47;101143.89;;;12.42;100.00
12536;BME280;6334;48.696;2.114;2022-11-11T13:49:50;101137.34;;;12.50;100.00
12536;BME280;6334;48.696;2.114;2022-11-11T13:52:51;101131.34;;;12.74;100.00
12536;BME280;6334;48.696;2.114;2022-11-11T13:55:42;101136.15;;;12.64;100.00
12536;BME280;6334;48.696;2.114;2022-11-11T13:58:41;101042.12;;;12.20;100.00
12536;BME280;6334;48.696;2.114;2022-11-11T14:01:38;101135.21;;;12.60;100.00
12536;BME280;6334;48.696;2.114;2022-11-11T14:10:51;101138.53;;;12.46;100.00
12536;BME280;6334;48.696;2.114;2022-11-11T14:13:53;101127.83;;;12.55;100.00
12536;BME280;6334;48.696;2.114;2022-11-11T14:19:49;101122.05;;;12.77;100.00
12536;BME280;6334;48.696;2.114;2022-11-11T14:22:48;101124.13;;;12.87;100.00
12536;BME280;6334;48.696;2.114;2022-11-11T14:25:47;101121.33;;;12.81;100.00
12536;BME280;6334;48.696;2.114;2022-11-11T14:31:50;101113.62;;;12.77;100.00
12536;BME280;6334;48.696;2.114;2022-11-11T14:38:14;101113.91;;;12.76;100.00
12536;BME280;6334;48.696;2.114;2022-11-11T14:44:39;101114.84;;;12.93;100.00
12536;BME280;6334;48.696;2.114;2022-11-11T14:47:38;101110.52;;;12.74;100.00
12536;BME280;6334;48.696;2.114;2022-11-11T14:53:36;101110.11;;;12.82;100.00
12536;BME280;6334;48.696;2.114;2022-11-11T14:56:36;101109.56;;;12.68;100.00
12536;BME280;6334;48.696;2.114;2022-11-11T14:59:34;101110.39;;;12.52;100.00
12536;BME280;6334;48.696;2.114;2022-11-11T15:02:39;101100.88;;;12.74;100.00
12536;BME280;6334;48.696;2.114;2022-11-11T15:08:53;101093.02;;;12.78;100.00
12536;BME280;6334;48.696;2.114;2022-11-11T15:12:08;101095.00;;;13.41;100.00
12536;BME280;6334;48.696;2.114;2022-11-11T15:15:13;101097.31;;;13.31;100.00
12536;BME280;6334;48.696;2.114;2022-11-11T15:27:35;101088.16;;;12.70;100.00
12536;BME280;6334;48.696;2.114;2022-11-11T15:36:44;101088.63;;;12.65;100.00
12536;BME280;6334;48.696;2.114;2022-11-11T15:39:43;101082.03;;;12.76;100.00
12536;BME280;6334;48.696;2.114;2022-11-11T15:42:39;101093.45;;;12.93;100.00
12536;BME280;6334;48.696;2.114;2022-11-11T15:45:37;101097.34;;;12.85;100.00
12536;BME280;6334;48.696;2.114;2022-11-11T15:48:42;101096.39;;;12.84;100.00
12536;BME280;6334;48.696;2.114;2022-11-11T15:51:39;101091.78;;;12.80;100.00
12536;BME280;6334;48.696;2.114;2022-11-11T15:54:37;101086.47;;;12.87;100.00
12536;BME280;6334;48.696;2.114;2022-11-11T15:57:36;101089.08;;;12.76;100.00
12536;BME280;6334;48.696;2.114;2022-11-11T16:00:35;101078.95;;;12.79;100.00